Time;durP1;ratioP1;P1;durP2;ratioP2;P2;SDS_P1;SDS_P2;PMS_P1;PMS_P2;Temp;Humidity;BMP_temperature;BMP_pressure;BME280_temperature;BME280_humidity;BME280_pressure;Samples;Min_cycle;Max_cycle;Signal;HPM_P1;HPM_P2
2022/02/24 00:00:50;;;;;;;19.26;10.03;;;;;;;;;;352839;149;856906;-59
2022/02/24 00:01:51;;;;;;;18.49;10.23;;;;;;;;;;353488;149;864415;-59
2022/02/24 00:02:53;;;;;;;19.06;10.12;;;;;;;;;;354387;148;856531;-59
2022/02/24 00:03:55;;;;;;;19.03;9.63;;;;;;;;;;353432;149;856636;-60
2022/02/24 00:04:56;;;;;;;18.57;9.94;;;;;;;;;;353615;148;856497;-58
2022/02/24 00:05:58;;;;;;;24.37;10.94;;;;;;;;;;353558;149;856252;-59
2022/02/24 00:06:59;;;;;;;17.94;9.81;;;;;;;;;;353624;149;856261;-59
2022/02/24 00:08:01;;;;;;;19.46;9.76;;;;;;;;;;353414;149;864487;-59
2022/02/24 00:09:03;;;;;;;20.37;10.01;;;;;;;;;;353610;149;864581;-59
2022/02/24 00:10:05;;;;;;;19.14;9.67;;;;;;;;;;353584;148;862009;-59
2022/02/24 00:11:07;;;;;;;26.77;11.04;;;;;;;;;;353260;148;857519;-59
2022/02/24 00:12:08;;;;;;;29.54;11.97;;;;;;;;;;352893;149;856191;-58
2022/02/24 00:13:10;;;;;;;22.39;11.00;;;;;;;;;;353394;149;856642;-58
2022/02/24 00:14:12;;;;;;;40.55;14.59;;;;;;;;;;353413;148;856623;-59
2022/02/24 00:15:13;;;;;;;231.94;52.71;;;;;;;;;;353374;149;864027;-59
2022/02/24 00:16:16;;;;;;;272.24;62.50;;;;;;;;;;353417;149;856621;-59
2022/02/24 00:17:17;;;;;;;101.27;28.53;;;;;;;;;;353847;149;856175;-59
2022/02/24 00:18:19;;;;;;;60.06;20.04;;;;;;;;;;353616;149;856716;-59
2022/02/24 00:19:20;;;;;;;34.07;14.65;;;;;;;;;;353848;149;857343;-59
2022/02/24 00:20:22;;;;;;;83.55;24.30;;;;;;;;;;354069;149;856842;-59
2022/02/24 00:21:23;;;;;;;35.09;15.60;;;;;;;;;;353641;149;864505;-60
2022/02/24 00:22:25;;;;;;;58.09;19.59;;;;;;;;;;353324;149;864639;-60
2022/02/24 00:23:27;;;;;;;42.59;14.87;;;;;;;;;;353415;149;864254;-59
2022/02/24 00:24:28;;;;;;;25.67;10.56;;;;;;;;;;353098;149;856249;-59
2022/02/24 00:25:30;;;;;;;17.56;10.54;;;;;;;;;;353476;149;863811;-59
2022/02/24 00:26:33;;;;;;;16.62;9.39;;;;;;;;;;352963;149;864899;-59
2022/02/24 00:27:35;;;;;;;16.06;9.66;;;;;;;;;;353665;149;864379;-59
2022/02/24 00:28:37;;;;;;;20.87;10.25;;;;;;;;;;353366;148;856786;-59
2022/02/24 00:29:38;;;;;;;21.79;10.44;;;;;;;;;;353452;149;856193;-59
2022/02/24 00:30:40;;;;;;;16.66;9.34;;;;;;;;;;353498;149;858857;-59
2022/02/24 00:31:42;;;;;;;17.16;9.55;;;;;;;;;;353323;148;857278;-61
2022/02/24 00:32:43;;;;;;;21.81;10.79;;;;;;;;;;353166;149;856628;-59
2022/02/24 00:33:45;;;;;;;21.42;10.24;;;;;;;;;;353529;149;856387;-59
2022/02/24 00:34:47;;;;;;;21.24;9.98;;;;;;;;;;353420;149;856140;-59
2022/02/24 00:35:48;;;;;;;18.59;9.96;;;;;;;;;;353391;149;860453;-59
2022/02/24 00:36:51;;;;;;;20.52;9.84;;;;;;;;;;353888;149;864003;-59
2022/02/24 00:37:52;;;;;;;17.66;9.91;;;;;;;;;;353866;149;864210;-59
2022/02/24 00:38:54;;;;;;;18.46;9.33;;;;;;;;;;353906;148;857009;-59
2022/02/24 00:39:56;;;;;;;22.64;9.96;;;;;;;;;;353353;149;856830;-60
2022/02/24 00:40:57;;;;;;;23.99;11.54;;;;;;;;;;353762;148;856300;-60
2022/02/24 00:41:59;;;;;;;18.79;9.41;;;;;;;;;;353311;149;863796;-59
2022/02/24 00:43:00;;;;;;;22.02;11.23;;;;;;;;;;353085;149;856562;-59
2022/02/24 00:44:02;;;;;;;22.41;11.04;;;;;;;;;;353695;149;856829;-60
2022/02/24 00:45:04;;;;;;;21.89;11.25;;;;;;;;;;353469;149;863731;-60
2022/02/24 00:46:06;;;;;;;22.48;10.67;;;;;;;;;;353569;148;856456;-59
2022/02/24 00:47:08;;;;;;;19.33;10.74;;;;;;;;;;353410;149;856381;-59
2022/02/24 00:48:10;;;;;;;20.20;11.01;;;;;;;;;;353755;149;863360;-59
2022/02/24 00:49:12;;;;;;;19.33;10.37;;;;;;;;;;353243;148;856510;-59
2022/02/24 00:50:14;;;;;;;20.45;11.48;;;;;;;;;;353241;149;863974;-59
2022/02/24 00:51:15;;;;;;;23.63;11.57;;;;;;;;;;353199;149;856551;-59
2022/02/24 00:52:17;;;;;;;19.09;11.29;;;;;;;;;;353395;149;863633;-59
2022/02/24 00:53:18;;;;;;;21.20;10.84;;;;;;;;;;353136;149;864365;-59
2022/02/24 00:54:20;;;;;;;20.78;10.73;;;;;;;;;;353554;148;863655;-59
2022/02/24 00:55:25;;;;;;;18.59;10.83;;;;;;;;;;353744;149;856395;-59
2022/02/24 00:56:27;;;;;;;21.32;10.87;;;;;;;;;;353094;149;863895;-60
2022/02/24 00:57:29;;;;;;;18.65;10.73;;;;;;;;;;352674;149;856220;-59
2022/02/24 00:58:30;;;;;;;25.89;10.89;;;;;;;;;;353612;149;863786;-60
2022/02/24 00:59:32;;;;;;;21.49;11.75;;;;;;;;;;353015;149;856487;-60
2022/02/24 01:00:34;;;;;;;23.34;10.91;;;;;;;;;;353045;149;856465;-60
2022/02/24 01:01:35;;;;;;;21.69;10.49;;;;;;;;;;353985;149;864241;-60
2022/02/24 01:02:37;;;;;;;21.41;11.47;;;;;;;;;;353728;149;856104;-60
2022/02/24 01:03:39;;;;;;;21.05;11.72;;;;;;;;;;353665;149;857055;-60
2022/02/24 01:04:40;;;;;;;22.39;12.36;;;;;;;;;;352916;149;858269;-60
2022/02/24 01:05:42;;;;;;;24.24;13.12;;;;;;;;;;353289;149;862591;-60
2022/02/24 01:06:43;;;;;;;40.68;19.14;;;;;;;;;;353673;149;856757;-60
2022/02/24 01:07:45;;;;;;;38.84;18.01;;;;;;;;;;353286;149;856244;-60
2022/02/24 01:08:46;;;;;;;36.94;17.46;;;;;;;;;;353788;150;863752;-61
2022/02/24 01:09:48;;;;;;;39.14;18.43;;;;;;;;;;353680;149;856232;-59
2022/02/24 01:10:50;;;;;;;52.50;23.06;;;;;;;;;;354293;148;857075;-60
2022/02/24 01:11:51;;;;;;;50.06;22.64;;;;;;;;;;353221;149;863929;-59
2022/02/24 01:13:06;;;;;;;63.41;27.47;;;;;;;;;;353146;148;864462;-59
2022/02/24 01:14:07;;;;;;;59.21;27.70;;;;;;;;;;352946;148;856477;-59
2022/02/24 01:15:11;;;;;;;60.34;26.32;;;;;;;;;;353557;149;863723;-58
2022/02/24 01:16:13;;;;;;;53.24;24.93;;;;;;;;;;353056;149;864318;-59
2022/02/24 01:17:14;;;;;;;57.86;25.64;;;;;;;;;;353102;148;856189;-59
2022/02/24 01:18:16;;;;;;;54.99;24.49;;;;;;;;;;352899;149;862016;-59
2022/02/24 01:19:18;;;;;;;41.26;20.33;;;;;;;;;;353558;149;863566;-59
2022/02/24 01:20:19;;;;;;;37.82;18.47;;;;;;;;;;353251;149;863799;-59
2022/02/24 01:21:22;;;;;;;32.45;15.08;;;;;;;;;;352970;148;856590;-59
2022/02/24 01:22:25;;;;;;;23.99;11.03;;;;;;;;;;353487;149;861761;-58
2022/02/24 01:23:26;;;;;;;25.61;12.07;;;;;;;;;;353617;148;856671;-59
2022/02/24 01:24:28;;;;;;;23.41;11.49;;;;;;;;;;353129;149;864369;-59
2022/02/24 01:25:30;;;;;;;18.34;11.44;;;;;;;;;;353601;149;856987;-59
2022/02/24 01:26:31;;;;;;;18.97;11.12;;;;;;;;;;353406;149;856403;-59
2022/02/24 01:27:33;;;;;;;19.35;10.89;;;;;;;;;;354381;149;857887;-59
2022/02/24 01:28:34;;;;;;;19.43;10.56;;;;;;;;;;354716;149;863686;-59
2022/02/24 01:29:36;;;;;;;22.49;10.95;;;;;;;;;;353997;149;861880;-59
2022/02/24 01:30:37;;;;;;;21.32;11.07;;;;;;;;;;354271;149;864097;-59
2022/02/24 01:31:39;;;;;;;17.91;10.87;;;;;;;;;;354345;148;863698;-59
2022/02/24 01:32:41;;;;;;;19.12;10.65;;;;;;;;;;356096;149;863725;-59
2022/02/24 01:33:42;;;;;;;22.19;10.44;;;;;;;;;;357089;147;864082;-59
2022/02/24 01:34:44;;;;;;;19.44;10.97;;;;;;;;;;358866;147;856541;-59
2022/02/24 01:35:45;;;;;;;19.09;10.91;;;;;;;;;;357534;147;856416;-59
2022/02/24 01:36:47;;;;;;;18.55;10.62;;;;;;;;;;357405;147;856025;-60
2022/02/24 01:37:49;;;;;;;16.52;10.34;;;;;;;;;;358539;147;863917;-59
2022/02/24 01:38:50;;;;;;;19.99;10.31;;;;;;;;;;359094;147;858587;-60
2022/02/24 01:39:52;;;;;;;17.10;9.29;;;;;;;;;;360210;147;864536;-60
2022/02/24 01:40:53;;;;;;;19.47;10.70;;;;;;;;;;357355;149;857278;-60
2022/02/24 01:41:55;;;;;;;22.24;10.64;;;;;;;;;;359069;147;864118;-60
2022/02/24 01:42:57;;;;;;;24.57;12.47;;;;;;;;;;357208;147;856795;-60
2022/02/24 01:44:00;;;;;;;20.62;10.70;;;;;;;;;;358600;147;856136;-60
2022/02/24 01:45:02;;;;;;;23.92;11.48;;;;;;;;;;356427;147;863709;-60
2022/02/24 01:46:03;;;;;;;22.24;10.09;;;;;;;;;;358785;147;856286;-60
2022/02/24 01:47:05;;;;;;;21.66;11.01;;;;;;;;;;357899;147;863465;-60
2022/02/24 01:48:07;;;;;;;17.64;10.24;;;;;;;;;;357847;147;863702;-60
2022/02/24 01:49:08;;;;;;;20.16;10.56;;;;;;;;;;357863;147;863706;-60
2022/02/24 01:50:11;;;;;;;18.77;10.37;;;;;;;;;;357314;147;856144;-60
2022/02/24 01:51:12;;;;;;;18.50;10.01;;;;;;;;;;355936;147;856512;-60
2022/02/24 01:52:14;;;;;;;19.81;10.43;;;;;;;;;;356600;147;863402;-60
2022/02/24 01:53:15;;;;;;;19.38;10.36;;;;;;;;;;355989;147;863642;-60
2022/02/24 01:54:17;;;;;;;18.64;9.61;;;;;;;;;;357209;147;857718;-60
2022/02/24 01:55:19;;;;;;;20.09;10.04;;;;;;;;;;356237;147;856842;-60
2022/02/24 01:56:22;;;;;;;15.77;9.19;;;;;;;;;;356002;147;856123;-59
2022/02/24 01:57:24;;;;;;;25.24;12.34;;;;;;;;;;355735;147;856375;-60
2022/02/24 01:58:25;;;;;;;16.55;9.50;;;;;;;;;;356430;147;864568;-60
2022/02/24 01:59:27;;;;;;;22.84;10.76;;;;;;;;;;356513;147;865173;-60
2022/02/24 02:00:29;;;;;;;20.96;10.28;;;;;;;;;;356185;147;863888;-60
2022/02/24 02:01:30;;;;;;;14.91;9.21;;;;;;;;;;355734;147;864389;-60
2022/02/24 02:02:32;;;;;;;17.09;9.59;;;;;;;;;;356393;147;858472;-61
2022/02/24 02:03:33;;;;;;;17.30;10.01;;;;;;;;;;355612;147;864107;-60
2022/02/24 02:04:36;;;;;;;16.12;9.76;;;;;;;;;;356013;147;864224;-60
2022/02/24 02:05:37;;;;;;;22.62;11.43;;;;;;;;;;355916;147;856331;-59
2022/02/24 02:06:39;;;;;;;15.52;9.56;;;;;;;;;;355862;147;856058;-60
2022/02/24 02:07:41;;;;;;;18.14;9.66;;;;;;;;;;356337;147;856867;-60
2022/02/24 02:08:42;;;;;;;20.79;10.26;;;;;;;;;;356184;147;857394;-60
2022/02/24 02:09:45;;;;;;;21.86;9.29;;;;;;;;;;356565;147;856368;-60
2022/02/24 02:10:46;;;;;;;16.78;10.16;;;;;;;;;;355952;147;856659;-60
2022/02/24 02:11:48;;;;;;;20.42;9.89;;;;;;;;;;356686;147;857056;-60
2022/02/24 02:12:50;;;;;;;19.59;9.91;;;;;;;;;;356003;147;857585;-60
2022/02/24 02:13:52;;;;;;;18.39;10.06;;;;;;;;;;356471;147;856337;-60
2022/02/24 02:14:53;;;;;;;18.76;10.04;;;;;;;;;;355413;147;856876;-61
2022/02/24 02:15:55;;;;;;;18.37;10.43;;;;;;;;;;356323;147;864384;-61
2022/02/24 02:16:58;;;;;;;20.46;10.02;;;;;;;;;;356563;147;863932;-60
2022/02/24 02:17:59;;;;;;;17.41;9.65;;;;;;;;;;356400;147;861730;-60
2022/02/24 02:19:01;;;;;;;16.17;9.93;;;;;;;;;;356315;147;856894;-60
2022/02/24 02:20:03;;;;;;;19.73;10.48;;;;;;;;;;355780;147;856605;-60
2022/02/24 02:21:04;;;;;;;18.03;10.71;;;;;;;;;;356166;147;856885;-61
2022/02/24 02:22:06;;;;;;;20.94;10.46;;;;;;;;;;356258;147;857038;-60
2022/02/24 02:23:08;;;;;;;16.40;10.37;;;;;;;;;;355644;147;856735;-60
2022/02/24 02:24:09;;;;;;;20.96;9.62;;;;;;;;;;356541;147;864350;-60
2022/02/24 02:25:11;;;;;;;16.67;9.76;;;;;;;;;;356308;147;856406;-60
2022/02/24 02:26:13;;;;;;;19.15;10.11;;;;;;;;;;356559;147;856239;-59
2022/02/24 02:27:15;;;;;;;23.49;10.70;;;;;;;;;;356537;147;857163;-60
2022/02/24 02:28:16;;;;;;;21.24;10.86;;;;;;;;;;356721;147;860712;-60
2022/02/24 02:29:18;;;;;;;15.35;9.81;;;;;;;;;;356024;147;856704;-59
2022/02/24 02:30:21;;;;;;;18.74;9.78;;;;;;;;;;356444;147;863857;-60
2022/02/24 02:31:22;;;;;;;17.51;10.18;;;;;;;;;;356918;147;856638;-60
2022/02/24 02:32:25;;;;;;;18.79;9.76;;;;;;;;;;356801;147;858946;-60
2022/02/24 02:33:26;;;;;;;16.82;9.89;;;;;;;;;;354869;147;856278;-60
2022/02/24 02:34:28;;;;;;;18.04;10.50;;;;;;;;;;352720;149;857369;-60
2022/02/24 02:35:30;;;;;;;15.50;9.64;;;;;;;;;;353407;149;864702;-60
2022/02/24 02:36:32;;;;;;;18.51;10.43;;;;;;;;;;353370;149;864083;-60
2022/02/24 02:37:33;;;;;;;20.60;10.17;;;;;;;;;;353125;149;864173;-60
2022/02/24 02:38:35;;;;;;;15.46;9.16;;;;;;;;;;353017;149;856243;-60
2022/02/24 02:39:36;;;;;;;20.61;10.21;;;;;;;;;;353706;149;856536;-60
2022/02/24 02:40:38;;;;;;;20.08;10.43;;;;;;;;;;353643;148;864077;-58
2022/02/24 02:41:41;;;;;;;20.11;9.86;;;;;;;;;;353008;148;863567;-60
2022/02/24 02:42:42;;;;;;;21.80;9.64;;;;;;;;;;354620;149;856935;-60
2022/02/24 02:43:44;;;;;;;19.39;10.09;;;;;;;;;;353934;149;856931;-59
2022/02/24 02:44:45;;;;;;;17.22;9.88;;;;;;;;;;353439;149;863954;-59
2022/02/24 02:45:47;;;;;;;20.16;10.53;;;;;;;;;;352844;149;856265;-59
2022/02/24 02:46:49;;;;;;;17.08;9.98;;;;;;;;;;353514;149;863382;-59
2022/02/24 02:47:51;;;;;;;22.78;10.06;;;;;;;;;;353744;148;857031;-59
2022/02/24 02:48:52;;;;;;;17.52;9.72;;;;;;;;;;353206;149;857071;-59
2022/02/24 02:49:54;;;;;;;17.04;9.79;;;;;;;;;;353868;149;864051;-59
2022/02/24 02:50:55;;;;;;;18.35;9.72;;;;;;;;;;353908;149;856464;-60
2022/02/24 02:51:57;;;;;;;16.75;9.95;;;;;;;;;;353959;148;864382;-60
2022/02/24 02:53:05;;;;;;;17.41;9.96;;;;;;;;;;353679;149;864083;-60
2022/02/24 02:54:07;;;;;;;20.11;10.41;;;;;;;;;;353417;148;863963;-60
2022/02/24 02:55:09;;;;;;;17.18;9.96;;;;;;;;;;353582;148;856396;-59
2022/02/24 02:56:10;;;;;;;18.75;9.90;;;;;;;;;;353559;149;864333;-59
2022/02/24 02:57:12;;;;;;;17.09;9.22;;;;;;;;;;353583;149;856105;-59
2022/02/24 02:58:13;;;;;;;19.95;10.49;;;;;;;;;;353581;149;864053;-59
2022/02/24 02:59:17;;;;;;;18.04;9.73;;;;;;;;;;353668;148;856810;-59
2022/02/24 03:00:20;;;;;;;16.68;10.01;;;;;;;;;;353299;149;863858;-59
2022/02/24 03:01:22;;;;;;;17.77;9.88;;;;;;;;;;353265;149;856838;-59
2022/02/24 03:02:23;;;;;;;16.10;10.19;;;;;;;;;;352224;149;856306;-59
2022/02/24 03:03:25;;;;;;;16.71;9.84;;;;;;;;;;352927;149;857315;-59
2022/02/24 03:04:26;;;;;;;19.76;10.80;;;;;;;;;;353401;148;856848;-59
2022/02/24 03:05:28;;;;;;;20.71;10.30;;;;;;;;;;353938;149;857388;-59
2022/02/24 03:06:30;;;;;;;17.86;9.89;;;;;;;;;;353102;148;856746;-59
2022/02/24 03:07:31;;;;;;;16.52;9.59;;;;;;;;;;353330;149;864138;-59
2022/02/24 03:08:33;;;;;;;16.00;9.86;;;;;;;;;;352988;149;856326;-59
2022/02/24 03:09:34;;;;;;;16.07;9.91;;;;;;;;;;354341;148;864049;-59
2022/02/24 03:10:36;;;;;;;17.61;9.83;;;;;;;;;;353734;149;864064;-59
2022/02/24 03:11:37;;;;;;;15.86;8.86;;;;;;;;;;353796;148;863907;-59
2022/02/24 03:12:39;;;;;;;16.26;9.52;;;;;;;;;;353632;149;863768;-59
2022/02/24 03:13:41;;;;;;;16.83;9.73;;;;;;;;;;353009;149;864468;-59
2022/02/24 03:14:42;;;;;;;18.91;10.24;;;;;;;;;;353808;149;856281;-59
2022/02/24 03:15:44;;;;;;;20.97;9.90;;;;;;;;;;353017;149;856739;-59
2022/02/24 03:16:45;;;;;;;20.58;10.15;;;;;;;;;;353143;148;857599;-58
2022/02/24 03:17:48;;;;;;;20.39;10.29;;;;;;;;;;353495;149;862131;-59
2022/02/24 03:18:49;;;;;;;22.23;10.69;;;;;;;;;;353308;149;856200;-59
2022/02/24 03:19:51;;;;;;;15.06;9.94;;;;;;;;;;353163;149;856148;-59
2022/02/24 03:20:52;;;;;;;18.93;10.39;;;;;;;;;;352916;148;856903;-62
2022/02/24 03:21:54;;;;;;;18.77;9.81;;;;;;;;;;353295;149;862209;-59
2022/02/24 03:22:56;;;;;;;16.57;10.00;;;;;;;;;;353437;149;856729;-59
2022/02/24 03:23:58;;;;;;;17.56;10.41;;;;;;;;;;353552;149;856804;-59
2022/02/24 03:25:00;;;;;;;18.24;9.89;;;;;;;;;;353004;149;863758;-59
2022/02/24 03:26:01;;;;;;;16.81;9.95;;;;;;;;;;353380;149;856208;-61
2022/02/24 03:27:03;;;;;;;16.77;10.22;;;;;;;;;;353163;148;864596;-60
2022/02/24 03:28:05;;;;;;;19.45;10.92;;;;;;;;;;353429;149;856042;-60
2022/02/24 03:29:07;;;;;;;20.05;11.59;;;;;;;;;;353720;149;856629;-60
2022/02/24 03:30:09;;;;;;;38.03;15.89;;;;;;;;;;353450;149;863784;-60
2022/02/24 03:31:11;;;;;;;37.73;14.38;;;;;;;;;;353413;149;856491;-60
2022/02/24 03:32:12;;;;;;;23.59;11.43;;;;;;;;;;353660;149;856298;-60
2022/02/24 03:33:15;;;;;;;24.94;12.22;;;;;;;;;;353460;149;856865;-60
2022/02/24 03:34:16;;;;;;;20.18;11.48;;;;;;;;;;353254;149;856517;-60
2022/02/24 03:35:19;;;;;;;22.89;12.04;;;;;;;;;;353499;148;856176;-58
2022/02/24 03:36:22;;;;;;;17.74;10.41;;;;;;;;;;353378;149;856175;-59
2022/02/24 03:37:24;;;;;;;17.84;10.75;;;;;;;;;;353557;148;856656;-59
2022/02/24 03:38:25;;;;;;;20.56;11.54;;;;;;;;;;352951;149;863728;-59
2022/02/24 03:39:27;;;;;;;18.29;10.68;;;;;;;;;;353406;149;858090;-59
2022/02/24 03:40:29;;;;;;;21.78;10.92;;;;;;;;;;353424;149;856494;-58
2022/02/24 03:41:30;;;;;;;23.44;11.04;;;;;;;;;;353396;149;864993;-59
2022/02/24 03:42:32;;;;;;;20.73;10.90;;;;;;;;;;353162;148;864085;-59
2022/02/24 03:43:34;;;;;;;24.30;11.98;;;;;;;;;;353541;149;863683;-59
2022/02/24 03:44:35;;;;;;;22.63;11.89;;;;;;;;;;353044;148;863912;-59
2022/02/24 03:45:37;;;;;;;21.09;12.29;;;;;;;;;;353281;148;856300;-60
2022/02/24 03:46:38;;;;;;;25.89;12.14;;;;;;;;;;353699;149;857091;-60
2022/02/24 03:47:40;;;;;;;20.26;11.37;;;;;;;;;;353166;149;864134;-59
2022/02/24 03:48:41;;;;;;;19.49;11.14;;;;;;;;;;353397;148;857747;-60
2022/02/24 03:49:43;;;;;;;19.84;11.54;;;;;;;;;;353422;149;856289;-59
2022/02/24 03:50:44;;;;;;;18.88;10.95;;;;;;;;;;353771;149;863673;-59
2022/02/24 03:51:46;;;;;;;19.40;10.71;;;;;;;;;;353438;149;863587;-60
2022/02/24 03:52:48;;;;;;;21.37;11.05;;;;;;;;;;353545;149;863437;-59
2022/02/24 03:53:49;;;;;;;23.64;11.10;;;;;;;;;;353660;149;864100;-59
2022/02/24 03:54:51;;;;;;;20.84;11.85;;;;;;;;;;353489;148;863753;-59
2022/02/24 03:55:53;;;;;;;23.12;12.61;;;;;;;;;;352998;148;863874;-59
2022/02/24 03:56:54;;;;;;;19.31;11.33;;;;;;;;;;347348;150;856745;-58
2022/02/24 03:57:56;;;;;;;19.79;11.05;;;;;;;;;;347376;150;864127;-59
2022/02/24 03:58:57;;;;;;;21.71;11.22;;;;;;;;;;353442;149;856964;-59
2022/02/24 03:59:59;;;;;;;23.02;12.04;;;;;;;;;;353126;149;863639;-59
2022/02/24 04:01:00;;;;;;;19.05;11.56;;;;;;;;;;353392;149;856525;-58
2022/02/24 04:02:02;;;;;;;21.06;11.39;;;;;;;;;;353201;149;863619;-59
2022/02/24 04:03:04;;;;;;;20.25;11.56;;;;;;;;;;353297;148;864059;-59
2022/02/24 04:04:06;;;;;;;23.16;12.24;;;;;;;;;;352841;149;856205;-60
2022/02/24 04:05:09;;;;;;;22.19;12.19;;;;;;;;;;353209;148;857109;-59
2022/02/24 04:06:12;;;;;;;18.26;12.28;;;;;;;;;;353085;148;856999;-59
2022/02/24 04:07:13;;;;;;;21.05;12.27;;;;;;;;;;352715;148;857317;-59
2022/02/24 04:08:15;;;;;;;17.66;10.96;;;;;;;;;;353258;148;856709;-59
2022/02/24 04:09:16;;;;;;;20.51;11.04;;;;;;;;;;352895;148;863593;-59
2022/02/24 04:10:20;;;;;;;20.43;11.71;;;;;;;;;;353344;148;858871;-59
2022/02/24 04:11:21;;;;;;;25.21;11.64;;;;;;;;;;353105;149;856263;-60
2022/02/24 04:12:23;;;;;;;15.27;10.73;;;;;;;;;;354130;148;863907;-62
2022/02/24 04:13:24;;;;;;;18.86;11.34;;;;;;;;;;353399;148;859233;-59
2022/02/24 04:14:26;;;;;;;19.70;11.41;;;;;;;;;;353207;148;856752;-60
2022/02/24 04:15:28;;;;;;;22.91;11.64;;;;;;;;;;353735;149;856302;-59
2022/02/24 04:16:29;;;;;;;20.22;12.05;;;;;;;;;;353242;148;864353;-59
2022/02/24 04:17:31;;;;;;;20.19;12.01;;;;;;;;;;353952;149;863866;-59
2022/02/24 04:18:33;;;;;;;18.19;11.09;;;;;;;;;;353155;149;863914;-59
2022/02/24 04:19:34;;;;;;;20.06;10.49;;;;;;;;;;353008;148;863996;-59
2022/02/24 04:20:36;;;;;;;16.68;11.04;;;;;;;;;;353267;148;864191;-60
2022/02/24 04:21:38;;;;;;;18.93;11.97;;;;;;;;;;353554;149;864510;-60
2022/02/24 04:22:39;;;;;;;17.69;11.07;;;;;;;;;;353718;148;864686;-59
2022/02/24 04:23:41;;;;;;;19.95;10.96;;;;;;;;;;353560;148;858517;-58
2022/02/24 04:24:42;;;;;;;18.39;11.12;;;;;;;;;;353021;148;856284;-60
2022/02/24 04:25:44;;;;;;;17.77;11.05;;;;;;;;;;353538;148;856219;-60
2022/02/24 04:26:45;;;;;;;19.70;11.08;;;;;;;;;;353014;148;858396;-59
2022/02/24 04:27:47;;;;;;;20.08;12.04;;;;;;;;;;353709;148;856919;-60
2022/02/24 04:28:49;;;;;;;19.36;11.59;;;;;;;;;;354095;148;856313;-60
2022/02/24 04:29:50;;;;;;;20.84;11.98;;;;;;;;;;353542;148;856472;-59
2022/02/24 04:30:52;;;;;;;16.24;10.51;;;;;;;;;;353418;148;858763;-59
2022/02/24 04:31:54;;;;;;;19.24;10.94;;;;;;;;;;354296;148;864543;-58
2022/02/24 04:32:55;;;;;;;19.96;11.79;;;;;;;;;;353289;148;864569;-60
2022/02/24 04:33:57;;;;;;;18.80;11.51;;;;;;;;;;352591;148;857416;-60
2022/02/24 04:34:58;;;;;;;19.14;11.79;;;;;;;;;;351263;150;863458;-59
2022/02/24 04:36:00;;;;;;;23.91;13.13;;;;;;;;;;351195;150;864076;-61
2022/02/24 04:37:02;;;;;;;18.29;10.94;;;;;;;;;;351203;150;856647;-59
2022/02/24 04:38:03;;;;;;;22.05;12.01;;;;;;;;;;350388;151;864733;-60
2022/02/24 04:39:05;;;;;;;16.29;10.97;;;;;;;;;;351022;149;864218;-60
2022/02/24 04:40:08;;;;;;;18.79;11.34;;;;;;;;;;351203;149;858012;-59
2022/02/24 04:41:10;;;;;;;20.58;11.23;;;;;;;;;;350589;150;856668;-58
2022/02/24 04:42:11;;;;;;;19.61;11.32;;;;;;;;;;350815;149;856923;-58
2022/02/24 04:43:13;;;;;;;19.73;10.91;;;;;;;;;;351192;151;863424;-59
2022/02/24 04:44:15;;;;;;;19.54;10.84;;;;;;;;;;351082;149;863517;-59
2022/02/24 04:45:16;;;;;;;19.28;11.36;;;;;;;;;;351461;149;859334;-60
2022/02/24 04:46:20;;;;;;;19.99;10.89;;;;;;;;;;350397;150;856554;-58
2022/02/24 04:47:21;;;;;;;18.76;11.51;;;;;;;;;;351374;151;857106;-59
2022/02/24 04:48:23;;;;;;;19.54;11.54;;;;;;;;;;350525;149;863690;-59
2022/02/24 04:49:24;;;;;;;20.43;11.51;;;;;;;;;;351203;150;863729;-60
2022/02/24 04:50:26;;;;;;;16.44;10.97;;;;;;;;;;350659;151;856802;-59
2022/02/24 04:51:27;;;;;;;22.82;11.38;;;;;;;;;;350578;151;864715;-60
2022/02/24 04:52:29;;;;;;;19.89;11.69;;;;;;;;;;350883;150;856792;-59
2022/02/24 04:53:30;;;;;;;19.89;11.59;;;;;;;;;;351161;149;856986;-59
2022/02/24 04:54:32;;;;;;;24.07;11.08;;;;;;;;;;350940;149;857605;-60
2022/02/24 04:55:34;;;;;;;21.64;11.29;;;;;;;;;;350704;151;863856;-60
2022/02/24 04:56:35;;;;;;;18.75;10.80;;;;;;;;;;350824;149;858498;-60
2022/02/24 04:57:37;;;;;;;21.31;11.94;;;;;;;;;;351168;149;863940;-58
2022/02/24 04:58:38;;;;;;;23.59;12.01;;;;;;;;;;351680;149;856727;-59
2022/02/24 04:59:40;;;;;;;18.87;10.90;;;;;;;;;;350858;149;864192;-60
2022/02/24 05:00:41;;;;;;;18.37;11.32;;;;;;;;;;350798;149;863556;-60
2022/02/24 05:01:43;;;;;;;19.16;11.66;;;;;;;;;;350971;149;863466;-60
2022/02/24 05:02:45;;;;;;;18.01;11.43;;;;;;;;;;350513;150;864192;-59
2022/02/24 05:03:46;;;;;;;18.86;11.09;;;;;;;;;;351236;149;863977;-60
2022/02/24 05:04:48;;;;;;;16.87;11.61;;;;;;;;;;351312;150;863859;-61
2022/02/24 05:05:50;;;;;;;18.10;10.80;;;;;;;;;;351043;149;863955;-60
2022/02/24 05:06:51;;;;;;;18.55;10.64;;;;;;;;;;350687;149;864411;-60
2022/02/24 05:07:53;;;;;;;18.45;10.99;;;;;;;;;;351453;151;863507;-60
2022/02/24 05:08:54;;;;;;;20.59;11.91;;;;;;;;;;351526;150;862364;-59
2022/02/24 05:09:57;;;;;;;19.94;12.00;;;;;;;;;;350977;151;864940;-61
2022/02/24 05:10:59;;;;;;;20.21;12.27;;;;;;;;;;350729;151;857137;-60
2022/02/24 05:12:01;;;;;;;22.76;12.72;;;;;;;;;;351378;149;856269;-59
2022/02/24 05:13:02;;;;;;;18.67;12.13;;;;;;;;;;350780;150;856277;-60
2022/02/24 05:14:04;;;;;;;20.86;12.80;;;;;;;;;;351017;149;856749;-58
2022/02/24 05:15:06;;;;;;;18.84;11.19;;;;;;;;;;350660;149;856821;-62
2022/02/24 05:16:07;;;;;;;19.51;11.31;;;;;;;;;;350689;149;864242;-60
2022/02/24 05:17:09;;;;;;;16.82;11.84;;;;;;;;;;350784;150;856037;-59
2022/02/24 05:18:10;;;;;;;17.24;11.34;;;;;;;;;;350809;151;863870;-60
2022/02/24 05:19:12;;;;;;;19.24;10.48;;;;;;;;;;350732;151;857216;-60
2022/02/24 05:20:14;;;;;;;19.43;11.46;;;;;;;;;;350809;149;863507;-60
2022/02/24 05:21:17;;;;;;;18.13;11.76;;;;;;;;;;350720;149;857243;-59
2022/02/24 05:22:18;;;;;;;20.77;12.26;;;;;;;;;;351008;151;856723;-60
2022/02/24 05:23:20;;;;;;;17.66;11.57;;;;;;;;;;351067;149;863679;-59
2022/02/24 05:24:21;;;;;;;22.36;12.51;;;;;;;;;;350290;149;856794;-59
2022/02/24 05:25:23;;;;;;;17.34;11.43;;;;;;;;;;351324;151;864366;-59
2022/02/24 05:26:25;;;;;;;23.02;13.92;;;;;;;;;;351205;149;864099;-61
2022/02/24 05:27:26;;;;;;;21.71;12.95;;;;;;;;;;351237;149;856400;-59
2022/02/24 05:28:28;;;;;;;18.35;12.26;;;;;;;;;;350698;150;856917;-61
2022/02/24 05:29:30;;;;;;;23.69;13.14;;;;;;;;;;351139;149;857286;-60
2022/02/24 05:30:31;;;;;;;21.12;12.09;;;;;;;;;;350837;149;857840;-60
2022/02/24 05:31:33;;;;;;;21.21;12.37;;;;;;;;;;350927;149;864525;-60
2022/02/24 05:32:35;;;;;;;20.29;11.22;;;;;;;;;;350368;151;863838;-60
2022/02/24 05:33:36;;;;;;;20.86;10.49;;;;;;;;;;351116;149;856356;-60
2022/02/24 05:34:38;;;;;;;20.74;13.30;;;;;;;;;;351735;148;856208;-60
2022/02/24 05:35:40;;;;;;;18.86;11.23;;;;;;;;;;356436;147;856379;-59
2022/02/24 05:36:43;;;;;;;15.96;10.44;;;;;;;;;;355698;147;857235;-59
2022/02/24 05:37:45;;;;;;;14.83;9.02;;;;;;;;;;355185;147;856583;-59
2022/02/24 05:38:46;;;;;;;16.80;9.42;;;;;;;;;;355938;147;856668;-60
2022/02/24 05:39:48;;;;;;;21.31;10.61;;;;;;;;;;355709;147;863435;-60
2022/02/24 05:40:49;;;;;;;16.58;10.63;;;;;;;;;;355323;147;863550;-59
2022/02/24 05:41:51;;;;;;;21.70;13.14;;;;;;;;;;355939;147;856295;-60
2022/02/24 05:42:53;;;;;;;20.59;12.89;;;;;;;;;;355590;147;863843;-60
2022/02/24 05:43:54;;;;;;;18.73;11.06;;;;;;;;;;355175;147;863743;-60
2022/02/24 05:44:56;;;;;;;22.56;12.64;;;;;;;;;;356043;147;863521;-60
2022/02/24 05:45:57;;;;;;;22.73;12.96;;;;;;;;;;355381;147;856223;-60
2022/02/24 05:46:59;;;;;;;23.99;12.76;;;;;;;;;;355405;147;863791;-60
2022/02/24 05:48:01;;;;;;;23.98;14.56;;;;;;;;;;355280;147;857456;-59
2022/02/24 05:49:02;;;;;;;24.70;14.54;;;;;;;;;;356218;147;856450;-60
2022/02/24 05:50:07;;;;;;;21.75;13.21;;;;;;;;;;355170;147;856339;-59
2022/02/24 05:51:11;;;;;;;27.12;15.03;;;;;;;;;;355338;147;863850;-60
2022/02/24 05:52:12;;;;;;;31.84;16.21;;;;;;;;;;355111;147;863945;-61
2022/02/24 05:53:14;;;;;;;27.16;15.16;;;;;;;;;;355498;147;856838;-61
2022/02/24 05:54:15;;;;;;;26.95;15.23;;;;;;;;;;355658;147;864030;-60
2022/02/24 05:55:17;;;;;;;23.34;14.81;;;;;;;;;;355641;147;859302;-60